createdAt,value
2018-09-19T00:01:26.853Z,18.08
2018-09-19T00:03:55.195Z,18.24
2018-09-19T00:06:23.539Z,18.20
2018-09-19T00:08:51.877Z,18.27
2018-09-19T00:11:20.232Z,18.26
2018-09-19T00:13:48.744Z,18.30
2018-09-19T00:16:17.062Z,18.23
2018-09-19T00:18:45.413Z,18.10
2018-09-19T00:21:13.815Z,18.08
2018-09-19T00:23:42.167Z,18.00
2018-09-19T00:26:10.548Z,17.85
2018-09-19T00:28:38.882Z,17.92
2018-09-19T00:31:07.212Z,18.05
2018-09-19T00:33:36.819Z,18.17
2018-09-19T00:36:05.409Z,18.05
2018-09-19T00:38:33.727Z,18.13
2018-09-19T00:41:02.072Z,18.03
2018-09-19T00:43:30.374Z,18.00
2018-09-19T00:45:58.703Z,18.06
2018-09-19T00:48:27.015Z,18.14
2018-09-19T00:50:55.357Z,18.21
2018-09-19T00:53:23.666Z,18.23
2018-09-19T00:55:52.011Z,18.51
2018-09-19T00:58:20.324Z,18.48
2018-09-19T01:00:48.659Z,18.49
2018-09-19T01:03:17.207Z,18.39
2018-09-19T01:05:45.582Z,18.46
2018-09-19T01:08:13.908Z,18.33
2018-09-19T01:10:42.691Z,18.27
2018-09-19T01:13:10.990Z,18.18
2018-09-19T01:15:39.324Z,18.21
2018-09-19T01:18:07.642Z,18.18
2018-09-19T01:20:36.503Z,18.14
2018-09-19T01:23:04.815Z,18.19
2018-09-19T01:25:33.156Z,18.12
2018-09-19T01:28:01.467Z,18.16
2018-09-19T01:30:29.794Z,18.11
2018-09-19T01:32:58.111Z,18.15
2018-09-19T01:35:26.486Z,17.98
2018-09-19T01:37:55.248Z,18.01
2018-09-19T01:40:23.570Z,17.93
2018-09-19T01:42:51.867Z,17.97
2018-09-19T01:45:20.210Z,18.03
2018-09-19T01:47:48.523Z,18.02
2018-09-19T01:50:16.885Z,18.03
2018-09-19T01:52:45.322Z,18.05
2018-09-19T01:55:13.620Z,18.07
2018-09-19T01:57:42.021Z,18.18
2018-09-19T02:00:10.383Z,18.18
2018-09-19T02:02:38.697Z,18.17
2018-09-19T02:05:07.461Z,18.31
2018-09-19T02:07:35.880Z,18.33
2018-09-19T02:10:04.233Z,18.26
2018-09-19T02:12:32.539Z,18.26
2018-09-19T02:15:00.886Z,18.21
2018-09-19T02:17:29.221Z,18.14
2018-09-19T02:19:57.535Z,18.09
2018-09-19T02:22:25.920Z,18.11
2018-09-19T02:24:54.242Z,18.04
2018-09-19T02:27:22.575Z,17.99
2018-09-19T02:29:51.207Z,17.93
2018-09-19T02:32:19.548Z,17.77
2018-09-19T02:34:47.887Z,17.69
2018-09-19T02:37:16.236Z,17.63
2018-09-19T02:39:44.547Z,17.56
2018-09-19T02:42:12.894Z,17.44
2018-09-19T02:44:41.210Z,17.58
2018-09-19T02:47:09.539Z,17.42
2018-09-19T02:49:37.853Z,17.34
2018-09-19T02:52:06.203Z,17.29
2018-09-19T02:54:34.514Z,17.33
2018-09-19T02:57:02.847Z,17.17
2018-09-19T02:59:31.182Z,17.14
2018-09-19T03:01:59.519Z,17.05
2018-09-19T03:04:27.838Z,16.97
2018-09-19T03:06:56.195Z,16.83
2018-09-19T03:09:24.504Z,16.88
2018-09-19T03:11:52.839Z,16.76
2018-09-19T03:14:21.303Z,16.75
2018-09-19T03:19:17.968Z,16.51
2018-09-19T03:21:46.299Z,16.52
2018-09-19T03:24:14.620Z,16.48
2018-09-19T03:26:42.942Z,16.50
2018-09-19T03:29:11.297Z,16.52
2018-09-19T03:31:39.623Z,16.52
2018-09-19T03:34:07.950Z,16.46
2018-09-19T03:36:36.264Z,16.46
2018-09-19T03:39:06.418Z,16.26
2018-09-19T03:41:34.743Z,16.26
2018-09-19T03:44:03.074Z,16.22
2018-09-19T03:46:31.390Z,16.13
2018-09-19T03:48:59.714Z,16.01
2018-09-19T03:51:28.042Z,16.04
2018-09-19T03:53:56.391Z,15.97
2018-09-19T03:56:24.691Z,15.88
2018-09-19T03:58:53.036Z,15.86
2018-09-19T04:01:21.582Z,15.84
2018-09-19T04:03:49.919Z,15.80
2018-09-19T04:06:18.245Z,15.88
2018-09-19T04:08:46.592Z,15.69
2018-09-19T04:11:14.948Z,15.75
2018-09-19T04:13:43.400Z,15.80
2018-09-19T04:16:11.723Z,15.72
2018-09-19T04:18:40.079Z,15.70
2018-09-19T04:21:08.423Z,15.71
2018-09-19T04:23:36.755Z,15.62
2018-09-19T04:26:05.218Z,15.71
2018-09-19T04:28:33.579Z,15.75
2018-09-19T04:31:01.916Z,15.79
2018-09-19T04:33:30.230Z,15.75
2018-09-19T04:35:58.577Z,15.70
2018-09-19T04:38:26.952Z,15.66
2018-09-19T04:40:55.280Z,15.66
2018-09-19T04:43:23.699Z,15.80
2018-09-19T04:45:52.033Z,15.75
2018-09-19T04:48:20.398Z,15.76
2018-09-19T04:50:48.968Z,15.55
2018-09-19T04:53:17.556Z,15.51
2018-09-19T04:55:46.144Z,15.50
2018-09-19T04:58:14.509Z,15.57
2018-09-19T05:00:42.911Z,15.49
2018-09-19T05:03:11.487Z,15.43
2018-09-19T05:05:40.525Z,15.51
2018-09-19T05:08:08.872Z,15.51
2018-09-19T05:10:37.412Z,15.54
2018-09-19T05:13:05.763Z,15.64
2018-09-19T05:15:34.089Z,15.91
2018-09-19T05:18:02.431Z,15.95
2018-09-19T05:20:30.752Z,15.96
2018-09-19T05:22:59.091Z,16.09
2018-09-19T05:25:27.485Z,16.03
2018-09-19T05:27:55.839Z,15.98
2018-09-19T05:30:24.156Z,16.16
2018-09-19T05:32:52.647Z,16.28
2018-09-19T05:35:20.962Z,16.32
2018-09-19T05:37:49.795Z,16.57
2018-09-19T05:40:18.104Z,16.70
2018-09-19T05:42:46.426Z,16.79
2018-09-19T05:45:14.770Z,16.97
2018-09-19T05:47:43.092Z,17.21
2018-09-19T05:50:11.435Z,17.30
2018-09-19T05:52:39.754Z,17.29
2018-09-19T05:55:08.092Z,17.50
2018-09-19T05:57:36.424Z,17.66
2018-09-19T06:00:05.183Z,17.70
2018-09-19T06:02:33.547Z,17.99
2018-09-19T06:05:01.926Z,17.83
2018-09-19T06:07:30.666Z,17.84
2018-09-19T06:09:59.010Z,17.93
2018-09-19T06:12:27.315Z,18.01
2018-09-19T06:14:55.676Z,18.09
2018-09-19T06:17:24.088Z,18.13
2018-09-19T06:19:52.451Z,18.56
2018-09-19T06:22:20.769Z,18.76
2018-09-19T06:24:49.147Z,19.21
2018-09-19T06:27:17.465Z,20.51
2018-09-19T06:29:45.800Z,20.78
2018-09-19T06:32:14.227Z,21.62
2018-09-19T06:34:42.542Z,22.54
2018-09-19T06:37:11.197Z,23.75
2018-09-19T06:39:39.694Z,24.98
2018-09-19T06:42:08.048Z,23.77
2018-09-19T06:44:36.607Z,25.14
2018-09-19T06:47:05.064Z,25.94
2018-09-19T06:49:33.763Z,25.96
2018-09-19T06:52:02.545Z,25.98
2018-09-19T06:54:30.846Z,28.60
2018-09-19T06:56:59.578Z,27.08
2018-09-19T06:59:28.494Z,27.47
2018-09-19T07:01:56.822Z,27.14
2018-09-19T07:04:25.156Z,25.58
2018-09-19T07:06:53.520Z,26.44
2018-09-19T07:09:21.830Z,25.63
2018-09-19T07:11:50.469Z,26.25
2018-09-19T07:14:18.778Z,26.46
2018-09-19T07:16:47.462Z,29.14
2018-09-19T07:19:15.815Z,30.45
2018-09-19T07:21:44.155Z,29.57
2018-09-19T07:24:12.485Z,29.71
2018-09-19T07:26:41.091Z,27.22
2018-09-19T07:29:09.431Z,28.54
2018-09-19T07:31:37.779Z,26.45
2018-09-19T07:34:06.107Z,28.01
2018-09-19T07:36:34.438Z,26.35
2018-09-19T07:39:02.788Z,29.06
2018-09-19T07:41:31.130Z,27.93
2018-09-19T07:43:59.694Z,27.50
2018-09-19T07:46:28.109Z,29.10
2018-09-19T07:48:56.383Z,31.61
2018-09-19T07:51:24.714Z,33.45
2018-09-19T07:53:53.028Z,30.28
2018-09-19T07:56:21.364Z,32.34
2018-09-19T07:58:49.663Z,32.65
2018-09-19T08:01:18.101Z,32.98
2018-09-19T08:03:46.352Z,34.63
2018-09-19T08:06:14.708Z,30.50
2018-09-19T08:08:43.015Z,29.56
2018-09-19T08:11:11.317Z,29.26
2018-09-19T08:13:40.012Z,31.85
2018-09-19T08:16:08.379Z,30.66
2018-09-19T08:18:36.730Z,31.18
2018-09-19T08:21:05.062Z,32.40
2018-09-19T08:23:33.782Z,35.03
2018-09-19T08:26:02.091Z,33.96
2018-09-19T08:28:30.473Z,34.72
2018-09-19T08:30:59.123Z,35.13
2018-09-19T08:33:27.463Z,35.13
2018-09-19T08:35:56.292Z,34.22
2018-09-19T08:38:24.694Z,35.19
2018-09-19T08:40:53.256Z,36.78
2018-09-19T08:43:21.575Z,34.70
2018-09-19T08:48:42.156Z,35.13
2018-09-19T08:51:10.478Z,36.86
2018-09-19T08:53:38.818Z,37.81
2018-09-19T08:56:07.184Z,36.97
2018-09-19T08:58:35.516Z,36.77
2018-09-19T09:01:03.867Z,34.23
2018-09-19T09:03:32.661Z,31.92
2018-09-19T09:06:01.221Z,33.49
2018-09-19T09:08:29.564Z,35.25
2018-09-19T09:10:57.883Z,36.07
2018-09-19T09:13:26.511Z,37.79
2018-09-19T09:15:54.847Z,39.24
2018-09-19T09:18:24.041Z,38.81
2018-09-19T09:20:52.952Z,35.24
2018-09-19T09:23:21.286Z,35.33
2018-09-19T09:25:49.620Z,36.16
2018-09-19T09:28:17.983Z,37.23
2018-09-19T09:30:46.816Z,37.51
2018-09-19T09:33:15.151Z,36.72
2018-09-19T09:35:43.852Z,36.94
2018-09-19T09:38:12.170Z,37.48
2018-09-19T09:40:40.500Z,36.24
2018-09-19T09:43:08.828Z,35.43
2018-09-19T09:45:37.139Z,36.78
2018-09-19T09:48:05.583Z,37.54
2018-09-19T09:50:34.215Z,37.31
2018-09-19T09:53:02.547Z,38.98
2018-09-19T09:55:30.861Z,37.01
2018-09-19T09:57:59.225Z,37.50
2018-09-19T10:00:32.673Z,36.54
2018-09-19T10:03:01.086Z,36.82
2018-09-19T10:05:29.397Z,36.29
2018-09-19T10:07:57.712Z,37.04
2018-09-19T10:13:16.626Z,34.96
2018-09-19T10:15:44.927Z,35.85
2018-09-19T10:18:13.248Z,37.53
2018-09-19T10:20:41.931Z,37.45
2018-09-19T10:23:10.219Z,37.50
2018-09-19T10:25:38.520Z,36.69
2018-09-19T10:28:06.835Z,36.27
2018-09-19T10:30:36.041Z,36.63
2018-09-19T10:33:04.347Z,37.68
2018-09-19T10:35:32.706Z,36.84
2018-09-19T10:38:01.366Z,36.70
2018-09-19T10:40:29.670Z,37.94
2018-09-19T10:42:57.974Z,37.47
2018-09-19T10:45:26.277Z,39.34
2018-09-19T10:47:54.880Z,37.20
2018-09-19T10:50:23.215Z,39.32
2018-09-19T10:52:51.847Z,38.28
2018-09-19T10:55:20.195Z,38.17
2018-09-19T10:57:48.514Z,40.35
2018-09-19T11:00:16.833Z,40.32
2018-09-19T11:02:45.134Z,41.10
2018-09-19T11:05:13.463Z,39.88
2018-09-19T11:07:41.765Z,41.85
2018-09-19T11:10:10.098Z,40.76
2018-09-19T11:12:38.411Z,39.74
2018-09-19T11:15:06.823Z,38.96
2018-09-19T11:17:35.103Z,39.86
2018-09-19T11:20:03.484Z,36.08
2018-09-19T11:22:32.210Z,36.67
2018-09-19T11:25:00.560Z,37.35
2018-09-19T11:27:29.283Z,38.80
2018-09-19T11:29:57.587Z,37.23
2018-09-19T11:32:25.938Z,38.25
2018-09-19T11:34:54.255Z,39.11
2018-09-19T11:37:22.538Z,39.35
2018-09-19T11:39:50.862Z,41.03
2018-09-19T11:42:19.175Z,40.07
2018-09-19T11:44:47.526Z,35.88
2018-09-19T11:47:15.819Z,33.09
2018-09-19T11:49:44.458Z,35.48
2018-09-19T11:52:12.751Z,35.94
2018-09-19T11:54:41.062Z,35.82
2018-09-19T11:57:09.396Z,35.90
2018-09-19T11:59:38.212Z,35.28
2018-09-19T12:02:06.576Z,36.81
2018-09-19T12:04:35.258Z,37.89
2018-09-19T12:07:03.615Z,38.68
2018-09-19T12:09:31.947Z,37.07
2018-09-19T12:12:00.343Z,34.91
2018-09-19T12:14:28.671Z,35.24
2018-09-19T12:16:56.965Z,38.39
2018-09-19T12:19:25.589Z,38.64
2018-09-19T12:21:54.522Z,40.69
2018-09-19T12:24:22.838Z,37.91
2018-09-19T12:26:51.119Z,39.71
2018-09-19T12:29:19.422Z,39.18
2018-09-19T12:31:47.743Z,35.05
2018-09-19T12:34:16.047Z,38.32
2018-09-19T12:36:44.339Z,40.36
2018-09-19T12:39:12.879Z,38.58
2018-09-19T12:41:41.435Z,38.90
2018-09-19T12:44:09.942Z,34.80
2018-09-19T12:46:38.587Z,36.55
2018-09-19T12:49:06.890Z,38.32
2018-09-19T12:51:35.230Z,38.25
2018-09-19T12:54:03.579Z,37.06
2018-09-19T12:56:31.918Z,34.03
2018-09-19T12:59:00.366Z,32.53
2018-09-19T13:01:28.679Z,31.64
2018-09-19T13:03:56.983Z,33.05
2018-09-19T13:06:25.316Z,32.36
2018-09-19T13:08:53.607Z,32.53
2018-09-19T13:11:22.353Z,32.94
2018-09-19T13:13:50.647Z,32.96
2018-09-19T13:16:18.970Z,33.01
2018-09-19T13:18:47.298Z,32.20
2018-09-19T13:21:15.702Z,29.88
2018-09-19T13:23:44.047Z,32.90
2018-09-19T13:26:12.354Z,33.27
2018-09-19T13:28:40.651Z,34.73
2018-09-19T13:31:09.003Z,33.61
2018-09-19T13:33:37.315Z,34.02
2018-09-19T13:36:05.662Z,32.74
2018-09-19T13:38:33.962Z,35.14
2018-09-19T13:41:02.299Z,36.06
2018-09-19T13:43:30.611Z,35.84
2018-09-19T13:45:58.963Z,36.26
2018-09-19T13:48:27.447Z,37.10
2018-09-19T13:51:04.098Z,37.85
2018-09-19T13:53:32.407Z,35.93
2018-09-19T13:56:00.725Z,36.89
2018-09-19T13:58:29.263Z,35.22
2018-09-19T14:00:57.574Z,35.00
2018-09-19T14:03:26.299Z,33.03
2018-09-19T14:05:54.615Z,33.08
2018-09-19T14:08:22.923Z,35.10
2018-09-19T14:10:51.254Z,36.16
2018-09-19T14:13:19.542Z,35.22
2018-09-19T14:15:47.863Z,34.18
2018-09-19T14:18:16.498Z,31.48
2018-09-19T14:20:45.748Z,32.04
2018-09-19T14:23:14.023Z,31.37
2018-09-19T14:25:42.347Z,32.73
2018-09-19T14:28:10.660Z,34.72
2018-09-19T14:30:38.951Z,34.26
2018-09-19T14:33:07.363Z,33.88
2018-09-19T14:35:36.192Z,33.11
2018-09-19T14:38:04.527Z,33.00
2018-09-19T14:40:32.828Z,33.00
2018-09-19T14:43:01.171Z,30.71
2018-09-19T14:45:29.882Z,31.43
2018-09-19T14:47:58.199Z,32.32
2018-09-19T14:50:26.488Z,33.48
2018-09-19T14:52:55.226Z,34.08
2018-09-19T14:55:23.519Z,34.07
2018-09-19T14:57:51.822Z,34.70
2018-09-19T15:00:20.175Z,34.40
2018-09-19T15:02:48.530Z,33.16
2018-09-19T15:05:16.839Z,33.33
2018-09-19T15:07:45.179Z,32.45
2018-09-19T15:10:13.495Z,33.09
2018-09-19T15:12:41.815Z,33.34
2018-09-19T15:15:10.506Z,33.42
2018-09-19T15:17:38.838Z,33.42
2018-09-19T15:20:07.631Z,32.74
2018-09-19T15:22:35.987Z,32.23
2018-09-19T15:25:04.380Z,31.85
2018-09-19T15:27:32.731Z,31.51
2018-09-19T15:30:01.042Z,30.27
2018-09-19T15:32:29.784Z,31.02
2018-09-19T15:34:58.291Z,30.92
2018-09-19T15:37:26.609Z,31.40
2018-09-19T15:39:54.919Z,30.88
2018-09-19T15:42:23.281Z,31.19
2018-09-19T15:44:51.571Z,31.15
2018-09-19T15:47:20.340Z,31.13
2018-09-19T15:49:48.655Z,30.69
2018-09-19T15:52:17.136Z,31.07
2018-09-19T15:54:46.199Z,30.81
2018-09-19T15:57:14.517Z,30.22
2018-09-19T15:59:42.831Z,30.43
2018-09-19T16:02:12.111Z,30.32
2018-09-19T16:04:40.434Z,29.61
2018-09-19T16:07:08.750Z,29.63
2018-09-19T16:09:37.091Z,29.19
2018-09-19T16:12:05.395Z,29.04
2018-09-19T16:14:33.758Z,28.76
2018-09-19T16:17:02.067Z,28.59
2018-09-19T16:19:30.992Z,28.32
2018-09-19T16:21:59.615Z,27.91
2018-09-19T16:24:27.944Z,27.65
2018-09-19T16:26:56.264Z,27.70
2018-09-19T16:29:24.643Z,27.62
2018-09-19T16:32:00.529Z,27.66
2018-09-19T16:34:28.899Z,27.42
2018-09-19T16:36:57.303Z,27.39
2018-09-19T16:39:25.751Z,27.29
2018-09-19T16:41:54.091Z,26.88
2018-09-19T16:44:22.419Z,27.10
2018-09-19T16:46:50.971Z,26.85
2018-09-19T16:49:19.743Z,26.91
2018-09-19T16:51:48.055Z,26.71
2018-09-19T16:54:16.408Z,26.77
2018-09-19T16:56:44.727Z,26.64
2018-09-19T16:59:13.059Z,26.48
2018-09-19T17:01:41.368Z,26.43
2018-09-19T17:04:09.684Z,26.21
2018-09-19T17:06:37.995Z,26.24
2018-09-19T17:09:07.799Z,26.15
2018-09-19T17:11:36.131Z,26.00
2018-09-19T17:14:04.463Z,25.93
2018-09-19T17:16:32.794Z,25.91
2018-09-19T17:19:01.146Z,25.77
2018-09-19T17:21:29.774Z,25.59
2018-09-19T17:23:58.411Z,25.42
2018-09-19T17:26:26.732Z,25.31
2018-09-19T17:28:55.062Z,25.18
2018-09-19T17:31:23.378Z,25.11
2018-09-19T17:33:51.667Z,24.95
2018-09-19T17:36:19.979Z,24.87
2018-09-19T17:38:48.287Z,24.84
2018-09-19T17:41:16.613Z,24.71
2018-09-19T17:43:44.903Z,24.67
2018-09-19T17:46:13.547Z,24.63
2018-09-19T17:48:41.874Z,24.59
2018-09-19T17:51:10.219Z,24.59
2018-09-19T17:53:39.626Z,24.49
2018-09-19T17:56:08.095Z,24.48
2018-09-19T17:58:36.407Z,24.43
2018-09-19T18:01:04.751Z,24.32
2018-09-19T18:03:33.083Z,24.28
2018-09-19T18:06:01.459Z,24.29
2018-09-19T18:08:29.723Z,24.23
2018-09-19T18:11:45.264Z,24.19
2018-09-19T18:14:13.572Z,23.96
2018-09-19T18:16:41.931Z,23.94
2018-09-19T18:19:10.215Z,23.84
2018-09-19T18:21:38.832Z,23.78
2018-09-19T18:24:07.120Z,23.71
2018-09-19T18:26:35.465Z,23.58
2018-09-19T18:29:03.780Z,23.54
2018-09-19T18:31:32.104Z,23.51
2018-09-19T18:34:00.500Z,23.37
2018-09-19T18:36:28.800Z,23.29
2018-09-19T18:38:57.074Z,23.21
2018-09-19T18:41:25.388Z,23.19
2018-09-19T18:43:53.643Z,23.07
2018-09-19T18:46:21.939Z,22.91
2018-09-19T18:48:50.250Z,22.90
2018-09-19T18:51:18.539Z,22.73
2018-09-19T18:56:39.436Z,22.55
2018-09-19T18:59:07.763Z,22.35
2018-09-19T19:01:36.171Z,22.30
2018-09-19T19:04:04.437Z,22.27
2018-09-19T19:06:32.751Z,22.25
2018-09-19T19:09:01.047Z,22.12
2018-09-19T19:11:29.350Z,21.93
2018-09-19T19:13:58.140Z,21.89
2018-09-19T19:16:26.451Z,21.77
2018-09-19T19:18:54.732Z,21.57
2018-09-19T19:21:23.040Z,21.37
2018-09-19T19:23:51.863Z,21.29
2018-09-19T19:26:20.172Z,21.21
2018-09-19T19:28:49.219Z,21.32
2018-09-19T19:31:17.516Z,21.29
2018-09-19T19:33:45.797Z,21.30
2018-09-19T19:36:14.100Z,21.36
2018-09-19T19:38:42.404Z,21.28
2018-09-19T19:41:10.716Z,21.38
2018-09-19T19:43:39.015Z,21.41
2018-09-19T19:46:07.298Z,21.39
2018-09-19T19:48:35.606Z,21.42
2018-09-19T19:51:03.891Z,21.42
2018-09-19T19:53:32.175Z,21.44
2018-09-19T19:56:00.464Z,21.40
2018-09-19T19:58:28.769Z,21.30
2018-09-19T20:00:57.075Z,21.31
2018-09-19T20:03:25.376Z,21.27
2018-09-19T20:05:53.681Z,21.00
2018-09-19T20:08:21.984Z,20.91
2018-09-19T20:10:50.594Z,20.79
2018-09-19T20:13:19.027Z,20.64
2018-09-19T20:15:47.367Z,20.49
2018-09-19T20:18:15.691Z,20.40
2018-09-19T20:20:43.971Z,20.27
2018-09-19T20:23:12.305Z,20.23
2018-09-19T20:25:41.028Z,20.08
2018-09-19T20:28:09.360Z,20.06
2018-09-19T20:30:37.875Z,19.86
2018-09-19T20:33:07.017Z,19.85
2018-09-19T20:35:48.795Z,19.60
2018-09-19T20:38:17.108Z,19.50
2018-09-19T20:40:45.399Z,19.67
2018-09-19T20:43:13.711Z,19.49
2018-09-19T20:45:42.655Z,19.40
2018-09-19T20:48:10.992Z,19.37
2018-09-19T20:50:39.308Z,19.38
2018-09-19T20:53:07.620Z,19.37
2018-09-19T20:55:35.924Z,19.22
2018-09-19T20:58:04.256Z,19.13
2018-09-19T21:00:32.556Z,18.99
2018-09-19T21:03:00.881Z,18.97
2018-09-19T21:05:29.172Z,18.99
2018-09-19T21:07:57.574Z,18.92
2018-09-19T21:10:26.880Z,18.90
2018-09-19T21:12:55.212Z,18.88
2018-09-19T21:15:23.555Z,18.83
2018-09-19T21:17:51.868Z,18.79
2018-09-19T21:20:20.219Z,18.78
2018-09-19T21:22:48.532Z,18.52
2018-09-19T21:25:16.872Z,18.51
2018-09-19T21:27:45.196Z,18.58
2018-09-19T21:30:13.521Z,18.64
2018-09-19T21:32:42.131Z,18.65
2018-09-19T21:35:10.432Z,18.53
2018-09-19T21:37:38.844Z,18.56
2018-09-19T21:40:07.143Z,18.49
2018-09-19T21:42:35.448Z,18.35
2018-09-19T21:45:03.780Z,18.31
2018-09-19T21:47:32.084Z,18.25
2018-09-19T21:50:00.416Z,18.23
2018-09-19T21:52:28.696Z,18.29
2018-09-19T21:54:56.999Z,18.26
2018-09-19T21:57:25.454Z,18.08
2018-09-19T21:59:53.743Z,18.25
2018-09-19T22:02:22.023Z,18.20
2018-09-19T22:04:50.327Z,18.15
2018-09-19T22:07:18.618Z,18.10
2018-09-19T22:09:46.924Z,18.02
2018-09-19T22:12:15.235Z,18.04
2018-09-19T22:14:44.087Z,17.81
2018-09-19T22:17:12.429Z,17.82
2018-09-19T22:19:40.748Z,17.76
2018-09-19T22:22:09.145Z,17.82
2018-09-19T22:24:37.470Z,17.74
2018-09-19T22:27:05.924Z,17.64
2018-09-19T22:29:34.239Z,17.52
2018-09-19T22:32:02.551Z,17.47
2018-09-19T22:34:30.880Z,17.51
2018-09-19T22:36:59.627Z,17.45
2018-09-19T22:39:27.960Z,17.44
2018-09-19T22:41:56.227Z,17.51
2018-09-19T22:44:24.935Z,17.26
2018-09-19T22:46:53.207Z,17.43
2018-09-19T22:49:21.499Z,17.40
2018-09-19T22:51:50.304Z,17.41
2018-09-19T22:54:18.615Z,17.34
2018-09-19T22:56:46.918Z,17.41
2018-09-19T22:59:15.199Z,17.42
2018-09-19T23:01:43.487Z,17.56
2018-09-19T23:04:11.752Z,17.63
2018-09-19T23:06:40.044Z,17.65
2018-09-19T23:09:08.908Z,17.72
2018-09-19T23:11:37.207Z,17.73
2018-09-19T23:14:05.555Z,17.73
2018-09-19T23:16:33.852Z,17.72
2018-09-19T23:19:02.232Z,17.67
2018-09-19T23:21:30.544Z,17.59
2018-09-19T23:23:58.828Z,17.59
2018-09-19T23:26:27.139Z,17.49
2018-09-19T23:28:55.435Z,17.44
2018-09-19T23:31:24.208Z,17.37
2018-09-19T23:33:52.488Z,17.19
2018-09-19T23:36:20.866Z,17.14
2018-09-19T23:38:49.191Z,17.12
2018-09-19T23:41:17.543Z,16.98
2018-09-19T23:43:45.828Z,16.98
2018-09-19T23:46:14.155Z,16.93
2018-09-19T23:48:42.460Z,16.80
2018-09-19T23:51:10.785Z,16.79
2018-09-19T23:53:39.073Z,16.73
2018-09-19T23:56:07.384Z,16.64
2018-09-19T23:58:35.679Z,16.54
